createdAt,value
2019-03-18T00:00:41.313Z,2.40
2019-03-18T00:03:09.808Z,2.10
2019-03-18T00:05:38.254Z,2.50
2019-03-18T00:08:06.844Z,2.20
2019-03-18T00:10:35.523Z,2.30
2019-03-18T00:13:04.048Z,2.20
2019-03-18T00:15:32.538Z,2.20
2019-03-18T00:18:00.970Z,2.00
2019-03-18T00:20:29.433Z,2.50
2019-03-18T00:22:57.998Z,2.40
2019-03-18T00:25:26.627Z,2.10
2019-03-18T00:27:55.099Z,1.90
2019-03-18T00:30:23.598Z,1.93
2019-03-18T00:32:52.049Z,2.40
2019-03-18T00:35:20.514Z,2.23
2019-03-18T00:37:49.034Z,2.13
2019-03-18T00:40:18.719Z,2.20
2019-03-18T00:42:47.254Z,2.50
2019-03-18T00:45:16.009Z,2.50
2019-03-18T00:47:44.724Z,2.37
2019-03-18T00:50:14.819Z,2.80
2019-03-18T00:52:43.902Z,2.90
2019-03-18T00:55:12.593Z,2.53
2019-03-18T00:57:41.128Z,2.80
2019-03-18T01:00:17.628Z,3.20
2019-03-18T01:02:49.078Z,4.20
2019-03-18T01:05:16.476Z,2.23
2019-03-18T01:07:45.346Z,2.50
2019-03-18T01:10:15.301Z,2.90
2019-03-18T01:13:04.734Z,2.53
2019-03-18T01:15:33.256Z,2.43
2019-03-18T01:18:01.711Z,2.17
2019-03-18T01:20:30.205Z,2.70
2019-03-18T01:22:58.684Z,2.30
2019-03-18T01:25:27.149Z,2.87
2019-03-18T01:27:55.709Z,2.40
2019-03-18T01:30:24.161Z,2.13
2019-03-18T01:32:52.616Z,2.37
2019-03-18T01:35:21.093Z,2.43
2019-03-18T01:37:49.557Z,2.20
2019-03-18T01:40:18.085Z,2.70
2019-03-18T01:42:46.643Z,3.33
2019-03-18T01:45:15.230Z,2.33
2019-03-18T01:47:43.764Z,1.77
2019-03-18T01:50:15.660Z,2.73
2019-03-18T01:52:44.703Z,2.30
2019-03-18T01:55:13.316Z,2.37
2019-03-18T01:57:42.012Z,2.20
2019-03-18T02:00:12.707Z,2.43
2019-03-18T02:02:41.154Z,2.43
2019-03-18T02:05:10.982Z,2.13
2019-03-18T02:07:39.572Z,2.80
2019-03-18T02:10:12.852Z,2.30
2019-03-18T02:12:41.509Z,2.83
2019-03-18T02:15:34.395Z,2.80
2019-03-18T02:18:02.868Z,2.60
2019-03-18T02:20:31.393Z,2.53
2019-03-18T02:22:59.975Z,2.90
2019-03-18T02:25:28.562Z,2.87
2019-03-18T02:27:57.010Z,2.60
2019-03-18T02:30:25.491Z,3.10
2019-03-18T02:32:54.036Z,3.23
2019-03-18T02:35:22.501Z,2.77
2019-03-18T02:37:50.975Z,3.23
2019-03-18T02:40:19.540Z,3.63
2019-03-18T02:42:48.259Z,2.93
2019-03-18T02:45:16.780Z,3.73
2019-03-18T02:47:45.365Z,2.50
2019-03-18T02:50:14.326Z,2.77
2019-03-18T02:52:42.866Z,2.57
2019-03-18T02:55:11.582Z,2.83
2019-03-18T02:57:40.136Z,2.50
2019-03-18T03:00:15.448Z,2.70
2019-03-18T03:02:43.922Z,2.10
2019-03-18T03:05:13.403Z,2.37
2019-03-18T03:07:41.979Z,2.50
2019-03-18T03:10:12.169Z,3.00
2019-03-18T03:12:40.699Z,3.70
2019-03-18T03:15:13.753Z,3.07
2019-03-18T03:17:42.297Z,2.43
2019-03-18T03:20:11.484Z,2.50
2019-03-18T03:22:59.393Z,2.47
2019-03-18T03:25:27.853Z,2.80
2019-03-18T03:27:56.393Z,2.67
2019-03-18T03:30:24.944Z,2.73
2019-03-18T03:32:53.553Z,3.00
2019-03-18T03:35:22.171Z,2.63
2019-03-18T03:37:50.858Z,2.70
2019-03-18T03:40:19.380Z,3.13
2019-03-18T03:42:47.830Z,2.87
2019-03-18T03:45:16.402Z,2.97
2019-03-18T03:47:44.850Z,3.43
2019-03-18T03:50:14.641Z,2.50
2019-03-18T03:52:43.211Z,2.93
2019-03-18T03:55:12.725Z,3.10
2019-03-18T03:57:41.489Z,3.07
2019-03-18T04:00:12.173Z,3.00
2019-03-18T04:02:40.661Z,3.23
2019-03-18T04:05:09.202Z,3.00
2019-03-18T04:07:38.103Z,3.50
2019-03-18T04:10:11.675Z,2.80
2019-03-18T04:12:40.313Z,3.77
2019-03-18T04:15:10.915Z,2.97
2019-03-18T04:17:39.509Z,3.10
2019-03-18T04:23:12.319Z,4.00
2019-03-18T04:25:40.838Z,3.60
2019-03-18T04:28:09.279Z,3.30
2019-03-18T04:30:37.905Z,3.03
2019-03-18T04:33:06.388Z,3.00
2019-03-18T04:35:34.907Z,2.33
2019-03-18T04:38:03.365Z,3.50
2019-03-18T04:40:33.503Z,3.30
2019-03-18T04:43:02.028Z,3.40
2019-03-18T04:45:30.482Z,3.80
2019-03-18T04:47:58.984Z,2.73
2019-03-18T04:50:27.507Z,2.90
2019-03-18T04:52:56.063Z,3.33
2019-03-18T04:55:24.639Z,2.60
2019-03-18T04:57:54.128Z,2.70
2019-03-18T05:00:22.587Z,3.43
2019-03-18T05:02:51.276Z,2.90
2019-03-18T05:05:19.719Z,2.80
2019-03-18T05:07:48.203Z,3.27
2019-03-18T05:10:16.788Z,2.97
2019-03-18T05:12:45.232Z,2.37
2019-03-18T05:15:13.768Z,3.27
2019-03-18T05:17:42.327Z,2.80
2019-03-18T05:20:11.731Z,2.20
2019-03-18T05:22:40.200Z,3.17
2019-03-18T05:25:09.912Z,2.40
2019-03-18T05:27:38.357Z,2.77
2019-03-18T05:30:14.543Z,2.77
2019-03-18T05:35:26.549Z,2.03
2019-03-18T05:37:56.062Z,2.50
2019-03-18T05:40:24.513Z,2.07
2019-03-18T05:42:53.055Z,3.13
2019-03-18T05:45:21.712Z,2.50
2019-03-18T05:47:50.241Z,2.53
2019-03-18T05:50:18.824Z,1.90
2019-03-18T05:52:47.443Z,1.73
2019-03-18T05:55:15.893Z,2.00
2019-03-18T05:57:44.356Z,2.10
2019-03-18T06:00:14.153Z,1.97
2019-03-18T06:02:42.676Z,2.37
2019-03-18T06:05:11.117Z,2.30
2019-03-18T06:07:39.603Z,2.27
2019-03-18T06:10:14.513Z,2.63
2019-03-18T06:12:43.037Z,2.47
2019-03-18T06:15:12.789Z,2.30
2019-03-18T06:17:51.758Z,1.70
2019-03-18T06:20:12.005Z,2.07
2019-03-18T06:22:40.555Z,3.17
2019-03-18T06:25:09.502Z,2.90
2019-03-18T06:27:38.022Z,2.87
2019-03-18T06:30:12.057Z,2.30
2019-03-18T06:32:40.500Z,2.03
2019-03-18T06:35:10.387Z,2.10
2019-03-18T06:37:39.121Z,2.30
2019-03-18T06:40:10.115Z,2.37
2019-03-18T06:42:38.577Z,2.57
2019-03-18T06:45:12.087Z,2.63
2019-03-18T06:47:40.611Z,2.70
2019-03-18T06:50:12.845Z,2.57
2019-03-18T06:52:41.336Z,2.50
2019-03-18T06:55:10.012Z,2.67
2019-03-18T06:57:38.568Z,2.40
2019-03-18T07:00:17.952Z,2.17
2019-03-18T07:02:46.471Z,2.13
2019-03-18T07:05:14.948Z,2.70
2019-03-18T07:07:43.442Z,2.07
2019-03-18T07:10:13.823Z,2.27
2019-03-18T07:12:42.465Z,2.23
2019-03-18T07:15:11.519Z,2.33
2019-03-18T07:17:39.985Z,1.77
2019-03-18T07:20:10.942Z,2.40
2019-03-18T07:22:39.480Z,2.30
2019-03-18T07:25:08.356Z,2.17
2019-03-18T07:27:36.807Z,2.03
2019-03-18T07:30:08.445Z,1.90
2019-03-18T07:32:36.907Z,2.20
2019-03-18T07:35:06.635Z,2.20
2019-03-18T07:37:35.136Z,2.30
2019-03-18T07:40:05.587Z,2.43
2019-03-18T07:42:34.305Z,2.20
2019-03-18T07:45:03.072Z,2.30
2019-03-18T07:47:31.526Z,2.47
2019-03-18T07:49:59.971Z,2.40
2019-03-18T07:52:28.732Z,2.13
2019-03-18T07:54:57.190Z,2.00
2019-03-18T07:57:25.643Z,2.53
2019-03-18T07:59:56.588Z,1.90
2019-03-18T08:02:24.605Z,2.03
2019-03-18T08:04:53.132Z,2.23
2019-03-18T08:07:21.628Z,2.17
2019-03-18T08:09:50.092Z,2.13
2019-03-18T08:12:18.561Z,2.40
2019-03-18T08:14:47.125Z,2.27
2019-03-18T08:17:15.583Z,2.63
2019-03-18T08:19:44.177Z,2.07
2019-03-18T08:22:12.816Z,2.03
2019-03-18T08:24:41.277Z,2.30
2019-03-18T08:27:09.725Z,2.80
2019-03-18T08:29:38.300Z,2.53
2019-03-18T08:32:06.867Z,2.10
2019-03-18T08:34:35.347Z,2.37
2019-03-18T08:37:03.951Z,2.03
2019-03-18T08:39:32.463Z,2.00
2019-03-18T08:42:00.915Z,2.93
2019-03-18T08:44:29.409Z,2.50
2019-03-18T08:46:57.930Z,2.93
2019-03-18T08:49:26.392Z,2.53
2019-03-18T08:51:56.757Z,2.33
2019-03-18T08:54:25.228Z,2.70
2019-03-18T08:56:53.844Z,2.47
2019-03-18T08:59:22.352Z,2.70
2019-03-18T09:01:50.807Z,2.27
2019-03-18T09:04:19.265Z,2.80
2019-03-18T09:06:48.031Z,2.40
2019-03-18T09:09:16.487Z,2.43
2019-03-18T09:11:45.093Z,2.67
2019-03-18T09:14:13.596Z,2.70
2019-03-18T09:16:42.065Z,2.80
2019-03-18T09:19:10.588Z,2.37
2019-03-18T09:21:39.072Z,2.80
2019-03-18T09:24:07.539Z,2.53
2019-03-18T09:26:35.996Z,3.30
2019-03-18T09:29:04.677Z,2.87
2019-03-18T09:31:33.132Z,2.83
2019-03-18T09:34:01.640Z,2.50
2019-03-18T09:36:30.234Z,2.33
2019-03-18T09:38:58.799Z,2.70
2019-03-18T09:41:27.375Z,2.97
2019-03-18T09:44:15.196Z,2.47
2019-03-18T09:46:43.687Z,2.63
2019-03-18T09:49:21.546Z,2.40
2019-03-18T09:51:42.375Z,2.77
2019-03-18T09:54:10.828Z,2.57
2019-03-18T09:56:39.294Z,2.90
2019-03-18T09:59:07.867Z,2.87
2019-03-18T10:01:36.322Z,3.00
2019-03-18T10:04:04.912Z,2.70
2019-03-18T10:06:33.482Z,2.67
2019-03-18T10:09:01.940Z,2.37
2019-03-18T10:11:30.460Z,2.67
2019-03-18T10:14:01.671Z,2.77
2019-03-18T10:16:30.130Z,2.57
2019-03-18T10:18:58.591Z,2.23
2019-03-18T10:21:27.155Z,2.70
2019-03-18T10:23:56.338Z,2.80
2019-03-18T10:26:24.870Z,2.20
2019-03-18T10:28:53.362Z,2.70
2019-03-18T10:31:21.904Z,2.20
2019-03-18T10:33:50.365Z,2.40
2019-03-18T10:36:19.102Z,2.53
2019-03-18T10:38:47.552Z,2.37
2019-03-18T10:41:16.014Z,2.40
2019-03-18T10:43:44.594Z,2.80
2019-03-18T10:46:13.036Z,2.27
2019-03-18T10:48:41.498Z,2.80
2019-03-18T10:51:10.056Z,2.10
2019-03-18T10:53:38.526Z,1.73
2019-03-18T10:56:08.242Z,2.07
2019-03-18T10:58:37.036Z,2.40
2019-03-18T11:01:05.492Z,2.10
2019-03-18T11:03:33.944Z,1.83
2019-03-18T11:06:02.437Z,1.80
2019-03-18T11:08:30.889Z,1.83
2019-03-18T11:10:59.347Z,2.33
2019-03-18T11:13:27.842Z,1.77
2019-03-18T11:15:57.229Z,1.70
2019-03-18T11:18:25.744Z,0.93
2019-03-18T11:20:54.305Z,0.97
2019-03-18T11:23:22.844Z,0.70
2019-03-18T11:25:51.297Z,0.60
2019-03-18T11:28:19.784Z,0.90
2019-03-18T11:30:48.265Z,0.80
2019-03-18T11:33:16.858Z,0.70
2019-03-18T11:35:45.428Z,0.77
2019-03-18T11:38:14.017Z,1.00
2019-03-18T11:40:42.545Z,0.77
2019-03-18T11:43:11.043Z,0.80
2019-03-18T11:45:39.500Z,0.60
2019-03-18T11:48:07.961Z,0.83
2019-03-18T11:50:36.431Z,0.80
2019-03-18T11:53:13.699Z,1.03
2019-03-18T11:55:35.323Z,0.80
2019-03-18T11:58:04.133Z,0.80
2019-03-18T12:00:32.582Z,0.80
2019-03-18T12:03:01.108Z,0.40
2019-03-18T12:05:30.125Z,0.50
2019-03-18T12:08:00.141Z,0.70
2019-03-18T12:10:28.608Z,0.70
2019-03-18T12:12:57.097Z,1.03
2019-03-18T12:15:26.588Z,0.60
2019-03-18T12:17:57.809Z,0.90
2019-03-18T12:20:26.367Z,0.93
2019-03-18T12:22:54.904Z,0.73
2019-03-18T12:25:23.499Z,0.97
2019-03-18T12:27:52.182Z,0.70
2019-03-18T12:30:21.878Z,0.63
2019-03-18T12:32:50.544Z,0.40
2019-03-18T12:35:19.348Z,0.80
2019-03-18T12:37:48.017Z,1.00
2019-03-18T12:40:17.513Z,0.87
2019-03-18T12:42:46.593Z,0.80
2019-03-18T12:45:18.942Z,0.73
2019-03-18T12:47:47.735Z,0.70
2019-03-18T12:50:38.831Z,0.90
2019-03-18T12:52:53.175Z,0.80
2019-03-18T12:55:21.766Z,0.80
2019-03-18T12:57:50.410Z,0.80
2019-03-18T13:00:35.366Z,0.80
2019-03-18T13:03:04.131Z,1.00
2019-03-18T13:05:32.663Z,0.70
2019-03-18T13:08:01.447Z,0.70
2019-03-18T13:10:29.957Z,0.70
2019-03-18T13:12:58.487Z,1.43
2019-03-18T13:15:27.015Z,0.80
2019-03-18T13:17:55.503Z,0.90
2019-03-18T13:20:24.304Z,1.13
2019-03-18T13:22:54.293Z,0.93
2019-03-18T13:25:23.039Z,0.87
2019-03-18T13:27:51.639Z,1.10
2019-03-18T13:30:22.289Z,0.50
2019-03-18T13:32:50.783Z,0.80
2019-03-18T13:35:19.377Z,0.90
2019-03-18T13:37:47.892Z,0.67
2019-03-18T13:40:17.431Z,0.87
2019-03-18T13:42:46.055Z,0.80
2019-03-18T13:45:21.615Z,0.90
2019-03-18T13:47:50.402Z,0.80
2019-03-18T13:50:20.975Z,0.87
2019-03-18T13:52:49.665Z,0.90
2019-03-18T13:55:18.364Z,0.80
2019-03-18T13:57:46.889Z,0.90
2019-03-18T14:00:19.243Z,0.90
2019-03-18T14:02:47.954Z,0.63
2019-03-18T14:05:16.497Z,0.63
2019-03-18T14:07:45.149Z,1.00
2019-03-18T14:10:15.427Z,0.70
2019-03-18T14:12:44.024Z,0.70
2019-03-18T14:15:17.707Z,0.50
2019-03-18T14:17:46.153Z,0.53
2019-03-18T14:20:16.626Z,0.67
2019-03-18T14:22:45.268Z,1.07
2019-03-18T14:25:13.870Z,0.53
2019-03-18T14:27:42.459Z,0.63
2019-03-18T14:30:20.814Z,0.70
2019-03-18T14:32:49.338Z,0.90
2019-03-18T14:35:21.425Z,0.67
2019-03-18T14:37:48.086Z,0.90
2019-03-18T14:40:19.750Z,0.73
2019-03-18T14:42:48.203Z,0.90
2019-03-18T14:45:23.556Z,1.00
2019-03-18T14:47:52.203Z,0.80
2019-03-18T14:50:20.985Z,0.83
2019-03-18T14:52:49.658Z,1.03
2019-03-18T14:55:19.019Z,1.10
2019-03-18T14:57:47.988Z,0.90
2019-03-18T15:00:21.767Z,1.03
2019-03-18T15:02:50.566Z,0.77
2019-03-18T15:05:19.169Z,1.10
2019-03-18T15:07:47.732Z,0.80
2019-03-18T15:10:35.626Z,0.90
2019-03-18T15:13:04.266Z,0.90
2019-03-18T15:15:32.733Z,0.80
2019-03-18T15:18:01.423Z,0.80
2019-03-18T15:20:30.201Z,0.90
2019-03-18T15:22:58.862Z,1.10
2019-03-18T15:25:32.752Z,0.90
2019-03-18T15:28:01.723Z,1.00
2019-03-18T15:30:30.174Z,0.90
2019-03-18T15:32:58.642Z,1.07
2019-03-18T15:35:27.221Z,1.10
2019-03-18T15:37:55.679Z,0.80
2019-03-18T15:40:25.495Z,0.83
2019-03-18T15:42:54.140Z,0.90
2019-03-18T15:45:23.148Z,0.70
2019-03-18T15:47:53.440Z,1.00
2019-03-18T15:50:23.559Z,1.13
2019-03-18T15:52:52.033Z,1.07
2019-03-18T15:55:23.599Z,0.80
2019-03-18T15:57:50.910Z,0.77
2019-03-18T16:00:25.832Z,0.90
2019-03-18T16:02:54.421Z,0.90
2019-03-18T16:05:22.924Z,1.07
2019-03-18T16:07:51.440Z,1.00
2019-03-18T16:10:20.647Z,0.90
2019-03-18T16:12:49.228Z,0.80
2019-03-18T16:15:18.441Z,0.87
2019-03-18T16:17:46.912Z,1.20
2019-03-18T16:20:22.753Z,0.70
2019-03-18T16:22:51.224Z,0.80
2019-03-18T16:25:19.846Z,0.80
2019-03-18T16:27:48.626Z,0.70
2019-03-18T16:30:18.316Z,0.60
2019-03-18T16:32:47.019Z,0.80
2019-03-18T16:35:16.563Z,0.90
2019-03-18T16:37:45.246Z,0.60
2019-03-18T16:40:17.972Z,0.70
2019-03-18T16:42:46.570Z,0.80
2019-03-18T16:45:17.147Z,0.70
2019-03-18T16:47:45.671Z,0.70
2019-03-18T16:50:28.951Z,0.70
2019-03-18T16:52:57.482Z,0.70
2019-03-18T16:55:25.969Z,0.70
2019-03-18T16:57:54.603Z,0.70
2019-03-18T17:00:24.387Z,0.60
2019-03-18T17:02:52.906Z,0.63
2019-03-18T17:05:40.750Z,0.70
2019-03-18T17:08:09.271Z,0.70
2019-03-18T17:10:37.748Z,0.63
2019-03-18T17:13:06.323Z,1.00
2019-03-18T17:15:34.776Z,1.00
2019-03-18T17:18:03.284Z,1.00
2019-03-18T17:20:31.852Z,0.93
2019-03-18T17:23:00.382Z,0.83
2019-03-18T17:25:48.922Z,0.93
2019-03-18T17:28:17.384Z,0.70
2019-03-18T17:30:45.852Z,0.90
2019-03-18T17:33:14.426Z,1.10
2019-03-18T17:35:42.943Z,1.03
2019-03-18T17:38:11.430Z,0.70
2019-03-18T17:40:39.935Z,0.80
2019-03-18T17:43:08.476Z,0.83
2019-03-18T17:45:37.013Z,1.00
2019-03-18T17:48:05.653Z,0.70
2019-03-18T17:50:34.108Z,1.00
2019-03-18T17:53:04.029Z,0.90
2019-03-18T17:55:32.968Z,0.73
2019-03-18T17:58:02.473Z,0.80
2019-03-18T18:00:35.441Z,0.80
2019-03-18T18:03:04.374Z,0.97
2019-03-18T18:05:32.903Z,0.80
2019-03-18T18:08:01.972Z,0.70
2019-03-18T18:10:30.472Z,0.90
2019-03-18T18:12:59.002Z,0.83
2019-03-18T18:15:27.443Z,1.00
2019-03-18T18:17:55.974Z,0.90
2019-03-18T18:20:24.654Z,1.03
2019-03-18T18:22:53.299Z,0.90
2019-03-18T18:25:21.873Z,1.03
2019-03-18T18:27:50.396Z,0.90
2019-03-18T18:30:19.691Z,0.80
2019-03-18T18:32:48.585Z,0.97
2019-03-18T18:35:17.114Z,0.90
2019-03-18T18:37:45.657Z,1.23
2019-03-18T18:40:19.332Z,1.10
2019-03-18T18:42:47.867Z,1.00
2019-03-18T18:45:16.456Z,1.07
2019-03-18T18:47:45.236Z,1.00
2019-03-18T18:50:14.215Z,1.20
2019-03-18T18:52:42.822Z,1.20
2019-03-18T18:55:12.441Z,0.90
2019-03-18T18:57:40.983Z,0.93
2019-03-18T19:00:17.071Z,0.93
2019-03-18T19:02:45.670Z,0.83
2019-03-18T19:05:15.559Z,0.90
2019-03-18T19:07:44.355Z,0.87
2019-03-18T19:10:20.651Z,1.10
2019-03-18T19:12:49.452Z,1.03
2019-03-18T19:15:22.737Z,0.87
2019-03-18T19:17:51.314Z,0.90
2019-03-18T19:20:19.888Z,1.10
2019-03-18T19:22:48.521Z,1.30
2019-03-18T19:25:17.516Z,1.10
2019-03-18T19:27:46.176Z,1.00
2019-03-18T19:30:21.485Z,1.33
2019-03-18T19:32:50.134Z,1.10
2019-03-18T19:35:19.895Z,1.43
2019-03-18T19:37:48.493Z,1.23
2019-03-18T19:40:22.990Z,1.30
2019-03-18T19:42:51.559Z,1.00
2019-03-18T19:45:20.394Z,1.77
2019-03-18T19:47:48.958Z,1.17
2019-03-18T19:50:19.462Z,1.20
2019-03-18T19:52:47.985Z,1.30
2019-03-18T19:55:16.619Z,1.20
2019-03-18T19:57:45.150Z,1.10
2019-03-18T20:00:22.839Z,1.40
2019-03-18T20:02:51.496Z,1.17
2019-03-18T20:05:20.162Z,1.27
2019-03-18T20:07:48.809Z,1.20
2019-03-18T20:10:18.471Z,1.17
2019-03-18T20:12:47.089Z,1.80
2019-03-18T20:15:16.859Z,1.40
2019-03-18T20:17:45.309Z,1.20
2019-03-18T20:20:15.842Z,1.27
2019-03-18T20:22:44.393Z,1.30
2019-03-18T20:25:13.805Z,1.30
2019-03-18T20:27:42.329Z,1.20
2019-03-18T20:30:13.592Z,1.50
2019-03-18T20:32:42.437Z,1.57
2019-03-18T20:35:13.427Z,1.73
2019-03-18T20:37:41.963Z,1.80
2019-03-18T20:40:13.205Z,1.50
2019-03-18T20:42:41.828Z,1.70
2019-03-18T20:45:13.512Z,1.40
2019-03-18T20:47:42.033Z,1.50
2019-03-18T20:50:17.991Z,1.43
2019-03-18T20:52:46.598Z,1.40
2019-03-18T20:55:16.162Z,1.20
2019-03-18T20:57:44.895Z,1.30
2019-03-18T21:00:19.178Z,1.50
2019-03-18T21:02:47.770Z,1.50
2019-03-18T21:05:16.528Z,1.30
2019-03-18T21:07:45.087Z,1.53
2019-03-18T21:10:15.046Z,1.30
2019-03-18T21:12:43.769Z,1.40
2019-03-18T21:15:14.458Z,1.53
2019-03-18T21:17:43.060Z,1.40
2019-03-18T21:20:16.572Z,1.50
2019-03-18T21:22:45.123Z,1.43
2019-03-18T21:25:13.903Z,1.63
2019-03-18T21:27:42.407Z,1.40
2019-03-18T21:30:16.267Z,1.87
2019-03-18T21:32:44.802Z,1.47
2019-03-18T21:35:13.450Z,1.70
2019-03-18T21:38:01.254Z,1.93
2019-03-18T21:40:29.737Z,1.63
2019-03-18T21:42:58.211Z,1.50
2019-03-18T21:45:26.789Z,1.60
2019-03-18T21:47:55.397Z,1.83
2019-03-18T21:50:24.001Z,1.87
2019-03-18T21:52:52.530Z,1.83
2019-03-18T21:55:21.117Z,1.67
2019-03-18T21:57:49.694Z,1.67
2019-03-18T22:00:19.095Z,1.90
2019-03-18T22:02:47.658Z,1.57
2019-03-18T22:05:16.452Z,1.67
2019-03-18T22:07:44.905Z,1.80
2019-03-18T22:10:14.623Z,1.83
2019-03-18T22:12:43.168Z,1.70
2019-03-18T22:15:13.281Z,1.70
2019-03-18T22:17:41.903Z,1.70
2019-03-18T22:20:12.814Z,1.37
2019-03-18T22:22:41.511Z,1.60
2019-03-18T22:25:11.850Z,1.37
2019-03-18T22:27:40.376Z,1.50
2019-03-18T22:30:14.152Z,1.40
2019-03-18T22:32:42.797Z,1.30
2019-03-18T22:35:12.159Z,1.50
2019-03-18T22:37:40.600Z,1.70
2019-03-18T22:40:12.086Z,1.60
2019-03-18T22:42:43.728Z,1.30
2019-03-18T22:45:13.417Z,1.37
2019-03-18T22:47:41.908Z,1.40
2019-03-18T22:50:11.957Z,1.60
2019-03-18T22:52:40.482Z,1.73
2019-03-18T22:55:10.987Z,1.83
2019-03-18T22:57:39.778Z,1.90
2019-03-18T23:00:21.242Z,1.87
2019-03-18T23:02:50.141Z,1.97
2019-03-18T23:05:18.734Z,1.80
2019-03-18T23:07:47.236Z,1.90
2019-03-18T23:10:15.864Z,1.77
2019-03-18T23:12:44.380Z,1.63
2019-03-18T23:15:13.132Z,1.80
2019-03-18T23:17:41.763Z,1.70
2019-03-18T23:20:10.556Z,1.63
2019-03-18T23:22:39.054Z,1.60
2019-03-18T23:25:08.399Z,1.70
2019-03-18T23:27:36.970Z,1.70
2019-03-18T23:30:11.441Z,1.50
2019-03-18T23:32:39.888Z,1.33
2019-03-18T23:35:08.476Z,2.03
2019-03-18T23:37:36.965Z,1.63
2019-03-18T23:40:07.586Z,1.60
2019-03-18T23:42:36.040Z,1.60
2019-03-18T23:45:05.982Z,1.40
2019-03-18T23:47:34.517Z,1.90
2019-03-18T23:50:03.194Z,1.60
2019-03-18T23:52:31.740Z,1.73
2019-03-18T23:55:00.280Z,1.40
2019-03-18T23:57:28.967Z,1.30
2019-03-18T23:59:57.614Z,1.60
